Time;durP1;ratioP1;P1;durP2;ratioP2;P2;SDS_P1;SDS_P2;PMS_P1;PMS_P2;Temp;Humidity;BMP_temperature;BMP_pressure;BME280_temperature;BME280_humidity;BME280_pressure;Samples;Min_cycle;Max_cycle;Signal;HPM_P1;HPM_P2
2023/04/26 00:00:08;;;;;;;2.53;2.33;;;6.00;99.90;;;-141.84;65.11;19492.75;5031796;28;20263;-57
2023/04/26 00:02:36;;;;;;;3.93;2.20;;;6.00;99.90;;;-141.84;66.17;19482.56;5031390;28;20204;-55
2023/04/26 00:05:07;;;;;;;6.13;2.63;;;5.90;99.90;;;-141.84;66.12;19496.81;5030476;28;20364;-54
2023/04/26 00:07:37;;;;;;;4.00;2.67;;;5.90;99.90;;;-141.84;66.35;19448.03;5031668;28;20221;-57
2023/04/26 00:10:09;;;;;;;4.23;2.50;;;5.80;99.90;;;-141.84;66.14;19476.47;5031534;28;20211;-54
2023/04/26 00:12:37;;;;;;;3.70;2.30;;;5.80;99.90;;;-141.84;66.63;19468.34;5031369;28;20227;-51
2023/04/26 00:15:07;;;;;;;4.57;2.60;;;5.80;99.90;;;-141.84;67.03;19478.50;5031630;28;20208;-58
2023/04/26 00:17:36;;;;;;;3.43;2.40;;;5.70;99.90;;;-141.84;67.54;19439.91;5031277;28;20677;-56
2023/04/26 00:20:08;;;;;;;3.87;2.90;;;5.60;99.90;;;-141.84;67.57;19462.25;5031690;28;20202;-55
2023/04/26 00:22:36;;;;;;;4.97;2.50;;;5.60;99.90;;;-141.84;67.75;19425.69;5031502;28;20248;-56
2023/04/26 00:25:07;;;;;;;3.03;2.60;;;5.60;99.90;;;-141.84;67.40;19429.75;5031412;28;20224;-55
2023/04/26 00:27:35;;;;;;;4.53;2.27;;;5.60;99.90;;;-141.84;66.75;19456.16;5030758;28;20563;-56
2023/04/26 00:30:04;;;;;;;4.40;2.50;;;5.70;99.90;;;-141.84;67.11;19480.53;5031456;28;20575;-54
2023/04/26 00:32:34;;;;;;;5.80;2.43;;;5.70;99.90;;;-141.84;66.32;19446.00;5030490;28;20205;-56
2023/04/26 00:35:05;;;;;;;5.90;2.43;;;5.70;99.90;;;-141.84;66.88;19472.41;5030873;28;20196;-55
2023/04/26 00:37:33;;;;;;;5.97;2.10;;;5.70;99.90;;;-141.84;65.86;19476.47;5031370;28;20194;-54
2023/04/26 00:40:01;;;;;;;2.47;2.03;;;5.70;99.90;;;-141.84;65.68;19460.22;5031605;28;20232;-54
2023/04/26 00:42:30;;;;;;;5.77;2.73;;;5.80;99.90;;;-141.84;65.62;19474.44;5031035;28;20209;-55
2023/04/26 00:44:58;;;;;;;3.63;2.17;;;5.80;99.90;;;-141.84;65.21;19480.53;5030971;28;20221;-54
2023/04/26 00:47:29;;;;;;;3.00;2.10;;;5.80;99.90;;;-141.84;65.18;19472.41;5031191;28;20213;-56
2023/04/26 00:49:58;;;;;;;2.90;2.00;;;5.80;99.90;;;-141.84;65.03;19484.59;5031024;28;20197;-54
2023/04/26 00:52:27;;;;;;;2.43;1.83;;;5.70;99.90;;;-141.84;65.45;19460.22;5031153;28;20209;-56
2023/04/26 00:54:57;;;;;;;2.40;1.90;;;5.70;99.90;;;-141.84;65.95;19462.25;5031001;28;20703;-55
2023/04/26 00:57:25;;;;;;;3.07;2.20;;;5.70;99.90;;;-141.84;65.95;19482.56;5031119;28;20692;-54
2023/04/26 00:59:55;;;;;;;4.60;2.07;;;5.60;99.90;;;-141.84;66.70;19431.78;5032845;28;20703;-54
2023/04/26 01:02:23;;;;;;;4.67;2.27;;;5.60;99.90;;;-141.84;66.15;19468.34;5033971;28;20205;-53
2023/04/26 01:04:51;;;;;;;3.87;2.20;;;5.60;99.90;;;-141.84;66.20;19439.91;5034429;28;20225;-53
2023/04/26 01:07:20;;;;;;;3.43;2.27;;;5.60;99.90;;;-141.84;65.55;19460.22;5034407;28;20212;-53
2023/04/26 01:09:49;;;;;;;3.80;2.63;;;5.50;99.90;;;-141.84;65.77;19437.88;5034801;28;20217;-52
2023/04/26 01:12:19;;;;;;;4.67;2.10;;;5.40;99.90;;;-141.84;66.35;19429.75;5033969;28;20224;-53
2023/04/26 01:14:48;;;;;;;3.93;2.00;;;5.40;99.90;;;-141.84;66.10;19411.44;5034327;28;20598;-52
2023/04/26 01:17:18;;;;;;;3.50;2.20;;;5.30;99.90;;;-141.84;66.35;19415.50;5034409;28;20575;-56
2023/04/26 01:19:48;;;;;;;2.37;1.80;;;5.30;99.90;;;-141.84;67.08;19403.31;5034065;28;20734;-54
2023/04/26 01:22:16;;;;;;;2.73;2.00;;;5.20;99.90;;;-141.84;67.42;19421.63;5034577;28;20204;-55
2023/04/26 01:24:50;;;;;;;4.47;2.27;;;5.10;99.90;;;-141.84;66.87;19448.03;5034496;28;20221;-54
2023/04/26 01:27:18;;;;;;;3.77;2.47;;;5.10;99.90;;;-141.84;67.08;19431.78;5033701;28;20617;-54
2023/04/26 01:29:47;;;;;;;3.27;2.10;;;5.10;99.90;;;-141.84;67.78;19395.19;5034219;28;20219;-57
2023/04/26 01:32:15;;;;;;;3.53;2.10;;;5.00;99.90;;;-141.84;68.42;19421.63;5034072;28;20297;-50
2023/04/26 01:34:43;;;;;;;4.73;2.43;;;4.90;99.90;;;-141.84;68.94;19342.34;5033021;28;20216;-54
2023/04/26 01:37:11;;;;;;;4.87;2.33;;;4.80;99.90;;;-141.84;69.17;19372.84;5033381;28;20204;-55
2023/04/26 01:39:39;;;;;;;5.67;2.27;;;4.80;99.90;;;-141.84;68.68;19429.75;5033963;28;20213;-57
2023/04/26 01:42:09;;;;;;;4.63;2.40;;;4.80;99.90;;;-141.84;69.00;19370.81;5034117;28;20223;-57
2023/04/26 01:44:37;;;;;;;4.30;2.60;;;4.80;99.90;;;-141.84;69.69;19362.69;5033937;28;20229;-57
2023/04/26 01:47:05;;;;;;;3.23;2.20;;;4.80;99.90;;;-141.84;70.22;19391.13;5033681;28;20204;-56
2023/04/26 01:49:33;;;;;;;2.83;2.30;;;4.70;99.90;;;-141.84;70.51;19320.00;5033465;28;20211;-58
2023/04/26 01:52:02;;;;;;;4.03;2.50;;;4.70;99.90;;;-141.84;70.28;19403.31;5033729;28;20208;-51
2023/04/26 01:54:30;;;;;;;4.47;2.60;;;4.60;99.90;;;-141.84;70.09;19391.13;5033648;28;20206;-55
2023/04/26 01:56:58;;;;;;;4.10;2.37;;;4.60;99.90;;;-141.84;70.62;19324.06;5033627;28;20476;-54
2023/04/26 01:59:28;;;;;;;4.33;2.80;;;4.60;99.90;;;-141.84;71.46;19352.53;5033553;28;20199;-55
2023/04/26 02:01:56;;;;;;;4.33;2.70;;;4.60;99.90;;;-141.84;71.43;19317.97;5033637;28;20208;-54
2023/04/26 02:04:24;;;;;;;3.23;2.50;;;4.50;99.90;;;-141.84;71.37;19342.34;5032786;28;20231;-54
2023/04/26 02:06:52;;;;;;;4.67;2.70;;;4.50;99.90;;;-141.84;71.19;19356.59;5032825;28;20231;-56
2023/04/26 02:09:20;;;;;;;4.10;2.57;;;4.50;99.90;;;-141.84;71.22;19336.25;5032994;28;20205;-57
2023/04/26 02:11:48;;;;;;;3.77;2.40;;;4.50;99.90;;;-141.84;70.44;19352.53;5032881;28;20222;-53
2023/04/26 02:14:17;;;;;;;3.97;2.80;;;4.50;99.90;;;-141.84;70.88;19378.94;5032881;28;20576;-56
2023/04/26 02:16:46;;;;;;;5.27;2.83;;;4.50;99.90;;;-141.84;71.01;19358.63;5033242;28;20307;-53
2023/04/26 02:19:14;;;;;;;3.70;2.60;;;4.50;99.90;;;-141.84;71.50;19315.94;5033185;28;20207;-54
2023/04/26 02:21:54;;;;;;;6.17;2.63;;;4.40;99.90;;;-141.84;71.74;19313.91;5033240;28;20209;-54
2023/04/26 02:24:22;;;;;;;2.40;2.20;;;4.40;99.90;;;-141.84;71.86;19348.47;5033012;28;20190;-54
2023/04/26 02:26:51;;;;;;;3.80;3.00;;;4.30;99.90;;;-141.84;72.22;19311.88;5032784;28;20231;-55
2023/04/26 02:29:20;;;;;;;5.57;3.03;;;4.30;99.90;;;-141.84;72.30;19309.84;5031494;28;20700;-57
2023/04/26 02:32:05;;;;;;;4.93;2.80;;;4.20;99.90;;;-141.84;72.22;19295.63;5032860;28;20188;-58
2023/04/26 02:34:33;;;;;;;4.70;2.60;;;4.20;99.90;;;-141.84;72.41;19313.91;5032982;28;20540;-58
2023/04/26 02:37:01;;;;;;;6.00;2.90;;;4.20;99.90;;;-141.84;73.17;19311.88;5032729;28;20199;-57
2023/04/26 02:39:30;;;;;;;3.87;3.00;;;4.20;99.90;;;-141.84;72.93;19311.88;5032916;28;20211;-58
2023/04/26 02:41:58;;;;;;;4.43;2.80;;;4.10;99.90;;;-141.84;73.72;19291.56;5032460;28;20212;-53
2023/04/26 02:44:30;;;;;;;7.37;3.10;;;4.10;99.90;;;-141.84;74.15;19301.72;5032265;28;20749;-56
2023/04/26 02:46:58;;;;;;;4.73;2.70;;;4.00;99.90;;;-141.84;73.84;19273.28;5032404;28;20206;-55
2023/04/26 02:49:30;;;;;;;3.33;2.70;;;4.00;99.90;;;-141.84;73.23;19317.97;5032632;28;20844;-53
2023/04/26 02:51:58;;;;;;;4.77;3.10;;;4.00;99.90;;;-141.84;73.42;19275.31;5032754;28;20207;-55
2023/04/26 02:54:26;;;;;;;4.57;3.00;;;4.00;99.90;;;-141.84;73.09;19291.56;5032873;28;20203;-56
2023/04/26 02:56:55;;;;;;;4.30;2.93;;;4.00;99.90;;;-141.84;73.48;19285.47;5032376;28;20570;-58
2023/04/26 02:59:23;;;;;;;4.93;2.90;;;3.90;99.90;;;-141.84;73.69;19285.47;5032386;28;20609;-54
2023/04/26 03:01:51;;;;;;;4.57;2.70;;;3.90;99.90;;;-141.84;74.06;19257.00;5032487;28;20222;-54
2023/04/26 03:04:19;;;;;;;5.37;2.67;;;3.90;99.90;;;-141.84;74.13;19265.13;5032180;28;20244;-55
2023/04/26 03:06:49;;;;;;;5.23;2.80;;;3.80;99.90;;;-141.84;74.31;19273.28;5032314;28;20218;-54
2023/04/26 03:09:17;;;;;;;3.87;2.70;;;3.80;99.90;;;-141.84;74.24;19273.28;5032584;28;20207;-54
2023/04/26 03:11:45;;;;;;;5.87;3.00;;;3.80;99.90;;;-141.84;74.20;19261.06;5032150;28;20214;-56
2023/04/26 03:14:17;;;;;;;4.43;2.93;;;3.80;99.90;;;-141.84;73.90;19269.22;5032500;28;20190;-55
2023/04/26 03:16:45;;;;;;;3.93;2.97;;;3.70;99.90;;;-141.84;73.11;19297.66;5031951;28;20726;-57
2023/04/26 03:19:13;;;;;;;3.10;2.80;;;3.80;99.90;;;-141.84;73.67;19269.22;5032280;28;20202;-58
2023/04/26 03:21:41;;;;;;;5.87;3.00;;;3.80;99.90;;;-141.84;73.78;19301.72;5031226;28;20698;-56
2023/04/26 03:24:11;;;;;;;4.63;3.10;;;3.70;99.90;;;-141.84;74.13;19265.13;5032188;28;20206;-55
2023/04/26 03:26:39;;;;;;;4.97;2.73;;;3.70;99.90;;;-141.84;73.64;19250.91;5031683;28;20258;-55
2023/04/26 03:29:07;;;;;;;6.33;3.00;;;3.70;99.90;;;-141.84;74.23;19240.75;5031704;28;20743;-56
2023/04/26 03:31:35;;;;;;;5.73;3.00;;;3.70;99.90;;;-141.84;74.65;19259.03;5032276;28;20210;-59
2023/04/26 03:34:04;;;;;;;5.30;2.70;;;3.60;99.90;;;-141.84;75.00;19265.13;5031680;28;20734;-57
2023/04/26 03:36:32;;;;;;;3.63;2.70;;;3.60;99.90;;;-141.84;75.05;19242.78;5031709;28;20662;-54
2023/04/26 03:39:00;;;;;;;6.60;2.83;;;3.60;99.90;;;-141.84;74.71;19297.66;5031700;28;20688;-55
2023/04/26 03:41:32;;;;;;;4.33;2.97;;;3.60;99.90;;;-141.84;73.92;19242.78;5031424;28;20202;-56
2023/04/26 03:44:00;;;;;;;5.03;2.93;;;3.60;99.90;;;-141.84;73.81;19257.00;5031858;28;20190;-55
2023/04/26 03:46:28;;;;;;;3.53;2.50;;;3.60;99.90;;;-141.84;74.31;19228.56;5031664;28;20234;-56
2023/04/26 03:48:56;;;;;;;4.73;2.73;;;3.60;99.90;;;-141.84;74.65;19248.88;5031698;28;20207;-57
2023/04/26 03:51:26;;;;;;;6.93;2.40;;;3.50;99.90;;;-141.84;74.07;19277.34;5030522;28;20209;-56
2023/04/26 03:53:54;;;;;;;7.57;3.13;;;3.50;99.90;;;-141.84;73.91;19265.13;5031779;28;20226;-55
2023/04/26 03:56:22;;;;;;;4.00;2.77;;;3.50;99.90;;;-141.84;74.35;19242.78;5031906;28;20206;-58
2023/04/26 03:58:52;;;;;;;5.50;2.93;;;3.50;99.90;;;-141.84;74.86;19254.97;5031539;28;20211;-54
2023/04/26 04:01:20;;;;;;;4.53;3.00;;;3.50;99.90;;;-141.84;75.05;19228.56;5031521;28;20668;-55
2023/04/26 04:03:49;;;;;;;5.07;2.70;;;3.50;99.90;;;-141.84;75.20;19254.97;5031930;28;20201;-51
2023/04/26 04:06:17;;;;;;;5.37;3.13;;;3.50;99.90;;;-141.84;75.52;19200.13;5031243;28;20255;-54
2023/04/26 04:08:45;;;;;;;6.93;2.90;;;3.40;99.90;;;-141.84;75.57;19240.75;5031732;28;20211;-58
2023/04/26 04:11:13;;;;;;;7.50;2.70;;;3.40;99.90;;;-141.84;74.78;19232.63;5031727;28;20211;-56
2023/04/26 04:13:43;;;;;;;4.37;2.97;;;3.50;99.90;;;-141.84;74.80;19220.44;5031304;28;20256;-55
2023/04/26 04:16:13;;;;;;;4.30;3.27;;;3.50;99.90;;;-141.84;73.90;19240.75;5031498;28;20200;-56
2023/04/26 04:18:41;;;;;;;5.00;3.27;;;3.50;99.90;;;-141.84;72.99;19301.72;5031553;28;20685;-54
2023/04/26 04:21:09;;;;;;;4.93;3.10;;;3.50;99.90;;;-141.84;73.02;19271.25;5031872;28;20199;-55
2023/04/26 04:23:38;;;;;;;5.27;2.80;;;3.60;99.90;;;-141.84;72.69;19267.16;5031636;28;20207;-57
2023/04/26 04:26:06;;;;;;;6.30;3.10;;;3.60;99.90;;;-141.84;72.76;19277.34;5031218;28;20235;-56
2023/04/26 04:28:34;;;;;;;5.20;2.50;;;3.60;99.90;;;-141.84;71.53;19285.47;5031381;28;20599;-55
2023/04/26 04:31:03;;;;;;;6.20;2.90;;;3.60;99.90;;;-141.84;71.89;19297.66;5031158;28;20233;-53
2023/04/26 04:33:32;;;;;;;3.90;2.80;;;3.70;99.90;;;-141.84;71.37;19257.00;5033651;28;20238;-54
2023/04/26 04:36:00;;;;;;;5.23;3.00;;;3.70;99.90;;;-141.84;71.50;19273.28;5035251;28;20578;-53
2023/04/26 04:38:29;;;;;;;5.37;2.90;;;3.70;99.90;;;-141.84;72.13;19265.13;5035231;28;20212;-58
2023/04/26 04:40:57;;;;;;;6.10;3.00;;;3.80;99.90;;;-141.84;71.01;19289.53;5035456;28;20214;-57
2023/04/26 04:43:26;;;;;;;7.17;2.60;;;3.90;99.90;;;-141.84;70.46;19279.38;5034412;28;20209;-56
2023/04/26 04:45:55;;;;;;;4.23;2.57;;;3.90;99.90;;;-141.84;70.85;19295.63;5033191;28;20315;-55
2023/04/26 04:48:23;;;;;;;4.80;2.97;;;4.00;99.90;;;-141.84;70.56;19293.59;5034417;28;20671;-54
2023/04/26 04:50:52;;;;;;;4.67;2.60;;;4.10;99.90;;;-141.84;70.04;19334.22;5034716;28;20299;-55
2023/04/26 04:53:20;;;;;;;4.77;2.80;;;4.20;99.90;;;-141.84;69.13;19350.50;5034383;28;20570;-53
2023/04/26 04:55:49;;;;;;;5.13;2.90;;;4.20;99.90;;;-141.84;68.96;19378.94;5034627;28;20207;-57
2023/04/26 04:58:17;;;;;;;7.13;2.87;;;4.40;99.90;;;-141.84;67.89;19358.63;5034589;28;20209;-55
2023/04/26 05:00:47;;;;;;;6.80;2.70;;;4.50;99.90;;;-141.84;67.69;19358.63;5034564;28;20195;-53
2023/04/26 05:03:15;;;;;;;4.20;2.67;;;4.50;99.90;;;-141.84;67.59;19385.03;5034631;28;20206;-55
2023/04/26 05:05:44;;;;;;;5.50;2.67;;;4.60;99.90;;;-141.84;66.82;19364.72;5034355;28;20254;-55
2023/04/26 05:08:13;;;;;;;5.60;2.97;;;4.70;99.90;;;-141.84;67.20;19403.31;5034495;28;20200;-55
2023/04/26 05:10:41;;;;;;;3.60;2.43;;;4.90;99.90;;;-141.84;66.51;19378.94;5034471;28;20567;-56
2023/04/26 05:13:10;;;;;;;5.80;2.83;;;5.00;99.90;;;-141.84;65.87;19405.34;5033344;28;20211;-55
2023/04/26 05:15:39;;;;;;;3.83;2.57;;;5.20;99.90;;;-141.84;65.04;19419.59;5033542;28;20218;-56
2023/04/26 05:18:07;;;;;;;8.57;2.93;;;5.30;99.90;;;-141.84;64.08;19433.81;5033690;28;20200;-53
2023/04/26 05:20:35;;;;;;;6.97;2.80;;;5.60;99.90;;;-141.84;63.56;19456.16;5034146;28;20203;-54
2023/04/26 05:23:03;;;;;;;6.60;4.07;;;5.70;99.90;;;-141.84;62.43;19490.72;5034040;28;20210;-54
2023/04/26 05:25:37;;;;;;;4.60;2.60;;;5.80;99.90;;;-141.84;61.81;19480.53;5034053;28;20200;-54
2023/04/26 05:28:11;;;;;;;6.87;4.23;;;5.80;99.90;;;-141.84;61.82;19484.59;5033721;28;20214;-56
2023/04/26 05:30:39;;;;;;;4.80;2.70;;;6.00;99.90;;;-141.84;61.10;19474.44;5033809;28;20576;-57
2023/04/26 05:33:07;;;;;;;4.93;2.70;;;6.10;99.90;;;-141.84;60.94;19513.06;5034115;28;20204;-55
2023/04/26 05:35:36;;;;;;;7.10;2.47;;;6.10;99.90;;;-141.84;60.76;19515.09;5033556;28;20208;-57
2023/04/26 05:38:04;;;;;;;4.67;2.90;;;6.20;99.90;;;-141.84;60.56;19504.94;5033955;28;20239;-55
2023/04/26 05:40:33;;;;;;;4.90;2.50;;;6.20;99.90;;;-141.84;60.31;19502.91;5034158;28;20212;-55
2023/04/26 05:43:01;;;;;;;4.17;2.63;;;6.30;99.90;;;-141.84;60.09;19531.34;5033775;28;20213;-53
2023/04/26 05:45:30;;;;;;;7.67;2.73;;;6.50;99.90;;;-141.84;60.37;19523.22;5033156;28;20299;-55
2023/04/26 05:47:58;;;;;;;6.57;3.03;;;6.50;99.90;;;-141.84;60.61;19539.47;5033819;28;20270;-57
2023/04/26 05:50:26;;;;;;;5.10;3.80;;;6.70;99.90;;;-141.84;59.57;19555.75;5033742;28;20206;-57
2023/04/26 05:52:54;;;;;;;5.47;2.60;;;6.70;99.90;;;-141.84;59.09;19561.84;5033662;28;20205;-55
2023/04/26 05:55:22;;;;;;;4.47;2.67;;;6.80;99.90;;;-141.84;59.28;19561.84;5033695;28;20209;-56
2023/04/26 05:57:52;;;;;;;7.93;3.07;;;6.90;99.90;;;-141.84;58.54;19586.22;5033169;28;20208;-56
2023/04/26 06:00:22;;;;;;;5.17;2.97;;;6.90;99.90;;;-141.84;58.66;19582.16;5033345;28;20209;-56
2023/04/26 06:02:50;;;;;;;5.70;2.63;;;6.90;99.90;;;-141.84;59.00;19592.31;5033911;28;20201;-56
2023/04/26 06:05:19;;;;;;;4.83;2.93;;;7.00;99.90;;;-141.84;58.66;19610.59;5033342;28;20204;-56
2023/04/26 06:07:47;;;;;;;6.27;2.93;;;7.00;99.90;;;-141.84;58.84;19594.34;5032687;28;20280;-55
2023/04/26 06:10:16;;;;;;;6.37;3.00;;;7.10;99.90;;;-141.84;58.23;19574.03;5033357;28;20297;-58
2023/04/26 06:12:45;;;;;;;4.17;2.77;;;7.20;99.90;;;-141.84;57.83;19606.53;5032892;28;20217;-56
2023/04/26 06:15:15;;;;;;;8.77;2.83;;;7.20;99.90;;;-141.84;58.09;19616.72;5032894;28;20219;-56
2023/04/26 06:17:43;;;;;;;5.13;2.73;;;7.20;99.90;;;-141.84;58.64;19628.91;5032344;28;20251;-56
2023/04/26 06:20:12;;;;;;;5.50;2.57;;;7.30;99.90;;;-141.84;57.48;19632.97;5030346;28;20208;-54
2023/04/26 06:22:40;;;;;;;5.47;2.90;;;7.40;99.90;;;-141.84;57.33;19602.47;5032891;28;20225;-55
2023/04/26 06:25:09;;;;;;;5.30;2.80;;;7.50;99.90;;;-141.84;57.31;19641.09;5032546;28;20234;-57
2023/04/26 06:27:39;;;;;;;3.47;2.83;;;7.60;99.90;;;-141.84;55.60;19673.59;5032551;28;20226;-53
2023/04/26 06:30:08;;;;;;;6.70;2.63;;;7.60;99.90;;;-141.84;55.97;19622.81;5032354;28;20209;-55
2023/04/26 06:32:41;;;;;;;7.40;3.07;;;7.60;99.90;;;-141.84;56.45;19649.22;5032819;28;20205;-57
2023/04/26 06:35:09;;;;;;;7.03;3.07;;;7.60;99.90;;;-141.84;56.01;19632.97;5032226;28;20232;-55
2023/04/26 06:37:38;;;;;;;4.53;2.70;;;7.60;99.90;;;-141.84;56.42;19679.72;5032708;28;20198;-57
2023/04/26 06:40:08;;;;;;;4.30;2.67;;;7.60;99.90;;;-141.84;55.71;19663.44;5032150;28;20202;-53
2023/04/26 06:42:36;;;;;;;6.53;3.03;;;7.70;99.90;;;-141.84;56.03;19659.38;5032360;28;20582;-54
2023/04/26 06:45:06;;;;;;;6.03;2.40;;;7.80;99.90;;;-141.84;55.62;19679.72;5032511;28;20202;-56
2023/04/26 06:47:34;;;;;;;7.87;2.33;;;7.90;99.90;;;-141.84;53.56;19691.91;5032503;28;20225;-55
2023/04/26 06:50:04;;;;;;;4.83;2.30;;;7.90;99.90;;;-141.84;54.10;19693.94;5032830;28;20384;-56
2023/04/26 06:52:33;;;;;;;5.53;2.60;;;7.80;99.90;;;-141.84;54.22;19663.44;5033121;28;20229;-58
2023/04/26 06:55:02;;;;;;;5.07;2.37;;;7.90;99.90;;;-141.84;54.21;19687.84;5032451;28;20206;-59
2023/04/26 06:57:30;;;;;;;5.97;3.03;;;7.90;99.90;;;-141.84;53.60;19687.84;5030744;28;20198;-56
2023/04/26 06:59:58;;;;;;;7.03;2.57;;;7.90;99.90;;;-141.84;53.44;19665.47;5031619;28;20212;-57
2023/04/26 07:02:27;;;;;;;7.00;2.40;;;7.90;99.90;;;-141.84;52.89;19726.44;5032052;28;20201;-56
2023/04/26 07:04:56;;;;;;;6.67;2.57;;;7.90;99.90;;;-141.84;52.64;19740.69;5032008;28;20329;-56
2023/04/26 07:07:26;;;;;;;4.67;2.70;;;8.00;99.90;;;-141.84;51.98;19730.50;5032051;28;20313;-57
2023/04/26 07:09:54;;;;;;;7.13;2.33;;;8.20;99.90;;;-141.84;52.33;19659.38;5031603;28;20627;-56
2023/04/26 07:12:22;;;;;;;7.53;2.70;;;8.00;99.90;;;-141.84;52.69;19663.44;5031532;28;20819;-56
2023/04/26 07:14:50;;;;;;;7.17;2.63;;;7.70;99.90;;;-141.84;52.68;19671.56;5031896;28;20198;-56
2023/04/26 07:17:20;;;;;;;9.03;3.07;;;7.70;99.90;;;-141.84;51.72;19748.81;5031987;28;20198;-54
2023/04/26 07:19:48;;;;;;;10.57;2.70;;;7.90;99.90;;;-141.84;51.02;19748.81;5031497;28;20202;-57
2023/04/26 07:22:16;;;;;;;5.93;3.00;;;8.10;99.90;;;-141.84;51.71;19722.38;5031465;28;20202;-56
2023/04/26 07:24:45;;;;;;;6.00;2.67;;;8.20;99.90;;;-141.84;51.08;19746.78;5031679;28;20232;-57
2023/04/26 07:27:14;;;;;;;7.47;2.50;;;8.20;99.90;;;-141.84;51.42;19716.28;5030963;28;20237;-55
2023/04/26 07:29:42;;;;;;;6.10;2.83;;;8.10;99.90;;;-141.84;51.86;19712.22;5031218;28;20206;-57
2023/04/26 07:32:10;;;;;;;7.53;2.70;;;8.00;99.90;;;-141.84;52.25;19714.25;5031633;28;20220;-57
2023/04/26 07:34:38;;;;;;;8.33;2.67;;;7.80;99.90;;;-141.84;52.11;19671.56;5031674;28;20205;-56
2023/04/26 07:37:06;;;;;;;4.57;2.63;;;7.80;99.90;;;-141.84;52.10;19732.53;5031700;28;20208;-56
2023/04/26 07:39:35;;;;;;;4.60;2.50;;;7.90;99.90;;;-141.84;51.61;19777.25;5031469;28;20217;-56
2023/04/26 07:42:04;;;;;;;7.20;3.33;;;8.20;99.90;;;-141.84;51.72;19803.69;5031408;28;20209;-57
2023/04/26 07:44:33;;;;;;;5.93;3.07;;;8.40;99.90;;;-141.84;50.02;19868.72;5030763;28;20674;-56
2023/04/26 07:47:01;;;;;;;6.97;2.77;;;8.70;99.90;;;-141.84;49.21;19854.50;5031111;28;20206;-55
2023/04/26 07:49:29;;;;;;;4.47;2.40;;;8.90;99.90;;;-141.84;49.12;19866.69;5031294;28;20198;-53
2023/04/26 07:52:00;;;;;;;10.10;2.70;;;9.00;99.90;;;-141.84;48.61;19933.75;5031423;28;20198;-55
2023/04/26 07:54:29;;;;;;;3.60;2.23;;;9.20;99.90;;;-141.84;47.42;19982.53;5031511;28;20187;-57
2023/04/26 07:56:57;;;;;;;5.33;2.43;;;9.50;99.90;;;-141.84;47.69;19943.91;5031040;28;20209;-55
2023/04/26 07:59:26;;;;;;;7.20;2.63;;;9.40;99.90;;;-141.84;46.99;19947.97;5031375;28;20203;-58
2023/04/26 08:01:54;;;;;;;7.20;2.40;;;9.50;99.90;;;-141.84;47.23;19911.41;5031373;28;20217;-57
2023/04/26 08:04:33;;;;;;;6.33;2.47;;;9.50;99.90;;;-141.84;45.95;19943.91;5031428;28;20236;-54
2023/04/26 08:07:02;;;;;;;7.50;2.10;;;9.50;99.90;;;-141.84;45.98;19992.69;5031496;28;20186;-58
2023/04/26 08:09:30;;;;;;;5.53;2.10;;;9.70;99.90;;;-141.84;44.77;19992.69;5035158;28;20225;-57
2023/04/26 08:11:59;;;;;;;3.63;2.03;;;10.00;99.90;;;-141.84;45.00;20037.41;5035501;28;20309;-58
2023/04/26 08:14:29;;;;;;;4.33;2.07;;;10.10;99.90;;;-141.84;44.24;20100.41;5035003;28;20569;-58
2023/04/26 08:16:57;;;;;;;6.83;2.20;;;10.30;99.90;;;-141.84;44.40;20128.88;5035004;28;20197;-58
2023/04/26 08:19:29;;;;;;;4.90;2.10;;;10.50;99.90;;;-141.84;43.92;20116.66;5034924;28;20546;-58
2023/04/26 08:21:57;;;;;;;4.90;2.37;;;10.60;99.90;;;-141.84;44.41;20041.47;5035643;28;20190;-58
2023/04/26 08:24:25;;;;;;;5.27;2.33;;;10.40;99.90;;;-141.84;44.76;19986.59;5035519;28;20206;-58
2023/04/26 08:26:54;;;;;;;6.33;3.03;;;9.90;99.90;;;-141.84;45.24;19943.91;5034670;28;20222;-57
2023/04/26 08:29:23;;;;;;;6.40;2.27;;;9.70;99.90;;;-141.84;45.49;19941.88;5035122;28;20226;-55
2023/04/26 08:31:53;;;;;;;5.87;2.70;;;9.50;99.90;;;-141.84;45.28;19960.16;5034716;28;20232;-58
2023/04/26 08:34:21;;;;;;;5.90;2.50;;;9.60;99.90;;;-141.84;45.53;19988.63;5035089;28;20210;-53
2023/04/26 08:36:49;;;;;;;6.17;2.27;;;9.60;99.90;;;-141.84;46.26;19919.53;5034885;28;20213;-57
2023/04/26 08:39:17;;;;;;;4.37;2.40;;;9.50;99.90;;;-141.84;46.50;19925.63;5034913;28;20209;-58
2023/04/26 08:41:53;;;;;;;4.50;2.30;;;9.40;99.90;;;-141.84;46.21;19923.59;5034318;28;20722;-57
2023/04/26 08:44:25;;;;;;;5.40;2.23;;;9.40;99.90;;;-141.84;45.40;20002.84;5034717;28;20182;-57
2023/04/26 08:47:13;;;;;;;7.10;2.50;;;9.60;99.90;;;-141.84;45.07;20069.94;5034692;28;20205;-56
2023/04/26 08:49:44;;;;;;;7.00;2.30;;;10.00;99.90;;;-141.84;42.77;20139.03;5034107;28;20579;-56
2023/04/26 08:52:15;;;;;;;4.03;2.17;;;10.50;99.90;;;-141.84;41.72;20141.06;5034896;28;20205;-56
2023/04/26 08:54:46;;;;;;;4.77;2.03;;;10.70;99.90;;;-141.84;42.90;20102.44;5034650;28;20194;-56
2023/04/26 08:57:15;;;;;;;5.13;2.30;;;10.70;99.90;;;-141.84;42.11;20126.84;5034229;28;20663;-57
2023/04/26 08:59:44;;;;;;;4.47;2.37;;;10.70;99.90;;;-141.84;43.18;20149.19;5034275;28;20202;-57
2023/04/26 09:02:19;;;;;;;7.77;2.40;;;10.60;99.90;;;-141.84;42.09;20086.19;5034519;28;20256;-58
2023/04/26 09:04:49;;;;;;;4.90;2.50;;;10.50;99.90;;;-141.84;43.02;20069.94;5034482;28;20574;-55
2023/04/26 09:07:26;;;;;;;5.57;3.13;;;10.30;99.90;;;-141.84;43.46;20019.13;5034242;28;20634;-56
2023/04/26 09:09:58;;;;;;;4.10;2.80;;;10.10;99.90;;;-141.84;44.66;20039.44;5034225;28;20620;-57
2023/04/26 09:12:26;;;;;;;4.50;2.40;;;10.00;99.90;;;-141.84;44.67;20049.59;5034111;28;20210;-56
2023/04/26 09:14:55;;;;;;;4.43;2.63;;;10.00;99.90;;;-141.84;43.30;20021.16;5034276;28;20565;-53
2023/04/26 09:17:29;;;;;;;7.63;2.80;;;10.10;99.90;;;-141.84;43.65;20035.38;5034517;28;20212;-57
2023/04/26 09:19:59;;;;;;;3.23;2.47;;;10.00;99.90;;;-141.84;43.70;20141.06;5032742;28;20650;-56
2023/04/26 09:22:36;;;;;;;5.57;2.60;;;10.30;99.90;;;-141.84;42.75;20049.59;5033904;28;20201;-57
2023/04/26 09:25:06;;;;;;;4.77;2.27;;;10.10;99.90;;;-141.84;42.54;20132.94;5034161;28;20186;-55
2023/04/26 09:27:38;;;;;;;4.40;2.80;;;10.30;99.90;;;-141.84;42.01;20118.69;5033322;28;20232;-56
2023/04/26 09:30:10;;;;;;;5.17;3.07;;;10.50;99.90;;;-141.84;42.26;20169.53;5033954;28;20206;-57
2023/04/26 09:32:51;;;;;;;4.77;2.73;;;10.60;99.90;;;-141.84;41.92;20220.34;5034052;28;20214;-56
2023/04/26 09:35:27;;;;;;;9.07;2.77;;;10.80;99.90;;;-141.84;42.06;20204.06;5034021;28;20240;-58
2023/04/26 09:37:58;;;;;;;5.63;2.53;;;10.90;99.90;;;-141.84;41.57;20191.88;5033732;28;20197;-55
2023/04/26 09:40:39;;;;;;;4.57;2.43;;;10.90;99.90;;;-141.84;41.29;20173.59;5033881;28;20632;-55
2023/04/26 09:43:10;;;;;;;3.80;2.30;;;10.80;99.90;;;-141.84;41.58;20130.91;5032221;28;20209;-58
2023/04/26 09:45:48;;;;;;;4.17;2.47;;;10.70;99.90;;;-141.84;41.42;20157.31;5033859;28;20613;-55
2023/04/26 09:48:21;;;;;;;4.50;2.90;;;10.90;99.90;;;-141.84;41.10;20204.06;5033527;28;20280;-54
2023/04/26 09:50:52;;;;;;;6.00;2.70;;;11.00;99.90;;;-141.84;41.53;20197.97;5033496;28;20269;-57
2023/04/26 09:53:29;;;;;;;5.20;2.83;;;11.00;99.90;;;-141.84;41.39;20197.97;5033464;28;20630;-58
2023/04/26 09:56:08;;;;;;;5.43;2.77;;;11.00;99.90;;;-141.84;41.17;20204.06;5033614;28;20190;-58
2023/04/26 09:58:39;;;;;;;3.57;2.60;;;11.10;99.90;;;-141.84;42.21;20173.59;5033140;28;20190;-55
2023/04/26 10:01:08;;;;;;;3.73;2.53;;;11.10;99.90;;;-141.84;42.09;20163.41;5033529;28;20182;-58
2023/04/26 10:03:39;;;;;;;5.07;2.70;;;11.00;99.90;;;-141.84;42.54;20163.41;5033135;28;20222;-57
2023/04/26 10:06:08;;;;;;;6.77;3.20;;;10.90;99.90;;;-141.84;41.39;20210.16;5033286;28;20239;-58
2023/04/26 10:08:37;;;;;;;7.47;2.60;;;11.00;99.90;;;-141.84;40.21;20252.84;5033043;28;20206;-57
2023/04/26 10:11:09;;;;;;;4.90;2.07;;;11.30;99.90;;;-141.84;38.65;20244.72;5033101;28;20550;-54
2023/04/26 10:13:38;;;;;;;4.57;2.27;;;11.40;99.90;;;-141.84;38.07;20218.31;5050023;28;20197;-58
2023/04/26 10:16:08;;;;;;;4.20;2.40;;;11.30;99.90;;;-141.84;38.91;20214.22;5053131;28;20201;-57
2023/04/26 10:18:38;;;;;;;8.07;2.90;;;11.20;99.90;;;-141.84;38.84;20218.31;5045494;28;20204;-57